Time;durP1;ratioP1;P1;durP2;ratioP2;P2;SDS_P1;SDS_P2;PMS_P1;PMS_P2;Temp;Humidity;BMP_temperature;BMP_pressure;BME280_temperature;BME280_humidity;BME280_pressure;Samples;Min_cycle;Max_cycle;Signal;HPM_P1;HPM_P2
2024/01/18 00:00:35;;;;;;;2.00;1.40;;;9.70;99.90;;;;;;6207793;23;20445;-66
2024/01/18 00:03:01;;;;;;;7.40;2.97;;;9.70;99.90;;;;;;6207611;23;20009;-70
2024/01/18 00:05:26;;;;;;;6.80;3.10;;;9.70;99.90;;;;;;6207079;23;20016;-68
2024/01/18 00:07:52;;;;;;;6.50;2.20;;;9.60;99.90;;;;;;6207082;23;20729;-72
2024/01/18 00:10:17;;;;;;;5.60;2.63;;;9.60;99.90;;;;;;6207593;23;20075;-71
2024/01/18 00:12:43;;;;;;;8.33;2.00;;;9.60;99.90;;;;;;6206661;23;20028;-69
2024/01/18 00:15:09;;;;;;;4.50;1.83;;;9.60;99.90;;;;;;6207054;23;20005;-69
2024/01/18 00:17:35;;;;;;;3.05;1.80;;;9.70;99.90;;;;;;6207247;23;20376;-68
2024/01/18 00:20:00;;;;;;;9.82;1.98;;;9.70;99.90;;;;;;6256255;22;20005;-68
2024/01/18 00:22:26;;;;;;;3.67;1.70;;;9.70;99.90;;;;;;6206874;23;20440;-68
2024/01/18 00:24:51;;;;;;;2.37;1.37;;;9.70;99.90;;;;;;6207378;23;20051;-66
2024/01/18 00:27:17;;;;;;;9.00;1.40;;;9.80;99.90;;;;;;6207528;23;20016;-71
2024/01/18 00:29:43;;;;;;;2.30;1.50;;;9.80;99.90;;;;;;6206183;23;20008;-66
2024/01/18 00:32:09;;;;;;;4.53;1.80;;;9.80;99.90;;;;;;6208484;23;20051;-66
2024/01/18 00:34:34;;;;;;;6.43;1.95;;;9.80;99.90;;;;;;6208383;23;20055;-72
2024/01/18 00:37:00;;;;;;;5.10;1.50;;;9.90;99.90;;;;;;6207449;23;20068;-70
2024/01/18 00:39:25;;;;;;;8.30;1.80;;;9.80;99.90;;;;;;6207959;23;20008;-69
2024/01/18 00:41:51;;;;;;;2.93;1.57;;;9.80;99.90;;;;;;6207629;23;20055;-71
2024/01/18 00:44:17;;;;;;;2.63;1.83;;;9.80;99.90;;;;;;6209420;23;20051;-68
2024/01/18 00:46:42;;;;;;;1.97;1.70;;;9.80;99.90;;;;;;6209000;23;20001;-69
2024/01/18 00:49:08;;;;;;;3.97;2.20;;;9.80;99.90;;;;;;6209588;23;20012;-67
2024/01/18 00:51:34;;;;;;;1.73;1.53;;;9.80;99.90;;;;;;6209830;23;20485;-67
2024/01/18 00:53:59;;;;;;;3.47;2.10;;;9.90;99.90;;;;;;6208996;23;20247;-67
2024/01/18 00:56:25;;;;;;;3.20;2.63;;;9.90;99.90;;;;;;6208786;23;20004;-68
2024/01/18 00:58:50;;;;;;;3.73;2.33;;;9.90;99.90;;;;;;6208669;23;20000;-67
2024/01/18 01:01:16;;;;;;;3.47;2.63;;;10.00;99.90;;;;;;6257472;22;20054;-67
2024/01/18 01:03:42;;;;;;;8.27;3.42;;;10.00;99.90;;;;;;6208321;23;20004;-73
2024/01/18 01:06:12;;;;;;;5.80;3.37;;;10.00;99.90;;;;;;6209691;23;20019;-70
2024/01/18 01:08:38;;;;;;;5.97;3.80;;;10.10;99.90;;;;;;6208917;23;20012;-73
2024/01/18 01:11:05;;;;;;;6.15;3.33;;;10.00;99.90;;;;;;6208567;23;20007;-70
2024/01/18 01:13:30;;;;;;;7.40;3.70;;;10.10;99.90;;;;;;6232575;23;20499;-69
2024/01/18 01:15:56;;;;;;;8.47;4.47;;;10.10;99.90;;;;;;6207987;23;20005;-72
2024/01/18 01:18:21;;;;;;;6.63;3.97;;;10.10;99.90;;;;;;6209269;23;20058;-72
2024/01/18 01:20:47;;;;;;;12.00;4.33;;;10.20;99.90;;;;;;6258110;22;20012;-70
2024/01/18 01:23:13;;;;;;;5.60;3.47;;;10.30;99.90;;;;;;6208467;23;20019;-71
2024/01/18 01:25:39;;;;;;;7.17;4.03;;;10.30;99.90;;;;;;6209038;23;20005;-69
2024/01/18 01:28:05;;;;;;;5.88;3.85;;;10.30;99.90;;;;;;6208781;23;20039;-69
2024/01/18 01:30:31;;;;;;;6.25;4.28;;;10.30;99.90;;;;;;6208780;23;20338;-71
2024/01/18 01:32:57;;;;;;;5.47;3.38;;;10.30;99.90;;;;;;6232594;23;20015;-70
2024/01/18 01:35:23;;;;;;;8.93;3.23;;;10.30;99.90;;;;;;6208862;23;20437;-68
2024/01/18 01:37:48;;;;;;;5.93;3.40;;;10.30;99.90;;;;;;6208468;23;20012;-69
2024/01/18 01:40:14;;;;;;;6.13;3.73;;;10.30;99.90;;;;;;6208480;23;20001;-67
2024/01/18 01:42:40;;;;;;;6.00;3.73;;;10.30;99.90;;;;;;6207102;23;20035;-67
2024/01/18 01:45:06;;;;;;;7.43;3.72;;;10.30;99.90;;;;;;6209370;23;20236;-66
2024/01/18 01:47:32;;;;;;;7.40;3.33;;;10.30;99.90;;;;;;6207649;23;20449;-68
2024/01/18 01:49:58;;;;;;;5.30;3.23;;;10.30;99.90;;;;;;6257610;22;20555;-67
2024/01/18 01:52:26;;;;;;;9.63;3.50;;;10.30;99.90;;;;;;6208786;23;20004;-70
2024/01/18 01:54:52;;;;;;;4.10;2.78;;;10.30;99.90;;;;;;6208130;23;20076;-68
2024/01/18 01:57:20;;;;;;;7.20;3.60;;;10.40;99.90;;;;;;6208418;23;20110;-66
2024/01/18 01:59:46;;;;;;;4.22;2.53;;;10.40;99.90;;;;;;6208814;23;20228;-65
2024/01/18 02:02:13;;;;;;;4.80;2.58;;;10.40;99.90;;;;;;6208584;23;20011;-66
2024/01/18 02:04:39;;;;;;;4.30;2.83;;;10.50;99.90;;;;;;6209014;23;20420;-68
2024/01/18 02:07:06;;;;;;;5.70;3.08;;;10.40;99.90;;;;;;6208333;23;20016;-65
2024/01/18 02:09:31;;;;;;;;;;;10.50;99.90;;;;;;6209776;23;20035;-66
2024/01/18 02:11:58;;;;;;;4.13;2.67;;;10.50;99.90;;;;;;6207987;23;19904;-70
2024/01/18 02:14:24;;;;;;;4.40;2.65;;;10.50;99.90;;;;;;6209585;23;20066;-72
2024/01/18 02:16:50;;;;;;;4.00;2.92;;;10.50;99.90;;;;;;6208698;23;20009;-69
2024/01/18 02:19:15;;;;;;;5.45;3.50;;;10.50;99.90;;;;;;6208852;23;20459;-72
2024/01/18 02:21:41;;;;;;;7.67;3.63;;;10.50;99.90;;;;;;6208580;23;20004;-72
2024/01/18 02:24:21;;;;;;;6.57;4.03;;;10.60;99.90;;;;;;6209473;23;20047;-73
2024/01/18 02:26:47;;;;;;;9.73;4.60;;;10.60;99.90;;;;;;6208209;23;20011;-72
2024/01/18 02:29:12;;;;;;;5.60;3.90;;;10.70;99.90;;;;;;6208118;23;20406;-71
2024/01/18 02:31:38;;;;;;;8.80;4.17;;;10.70;99.90;;;;;;6257866;22;20004;-69
2024/01/18 02:34:09;;;;;;;7.83;4.50;;;10.80;99.90;;;;;;6208320;23;20009;-71
2024/01/18 02:36:35;;;;;;;9.57;3.85;;;10.70;99.90;;;;;;6208571;23;20511;-69
2024/01/18 02:39:02;;;;;;;7.15;4.70;;;10.70;99.90;;;;;;6208612;23;20091;-67
2024/01/18 02:41:28;;;;;;;;;;;10.80;99.90;;;;;;6208884;23;20001;-67
2024/01/18 02:43:53;;;;;;;12.32;4.13;;;10.80;99.90;;;;;;6208549;23;19906;-70
2024/01/18 02:46:19;;;;;;;11.83;5.40;;;10.80;99.90;;;;;;6208661;23;20012;-69
2024/01/18 02:48:45;;;;;;;9.57;4.00;;;10.80;99.90;;;;;;6208138;23;20442;-67
2024/01/18 02:51:10;;;;;;;7.90;5.00;;;10.80;99.90;;;;;;6208408;23;20004;-72
2024/01/18 02:53:36;;;;;;;12.93;4.87;;;10.90;99.90;;;;;;6208531;23;20008;-70
2024/01/18 02:56:02;;;;;;;11.17;5.17;;;10.90;99.90;;;;;;6207817;23;20503;-69
2024/01/18 02:58:27;;;;;;;7.70;4.23;;;10.90;99.90;;;;;;6207987;23;20011;-71
2024/01/18 03:00:53;;;;;;;10.13;3.97;;;10.90;99.90;;;;;;6208139;23;20063;-68
2024/01/18 03:03:20;;;;;;;7.20;5.03;;;10.90;99.90;;;;;;6207824;23;20000;-69
2024/01/18 03:05:45;;;;;;;10.82;4.82;;;11.00;99.90;;;;;;6208092;23;20032;-71
2024/01/18 03:08:11;;;;;;;14.67;4.60;;;11.00;99.90;;;;;;6207922;23;20016;-72
2024/01/18 03:10:37;;;;;;;16.70;4.60;;;11.10;99.90;;;;;;6208470;23;20005;-71
2024/01/18 03:13:03;;;;;;;13.93;4.53;;;11.10;99.90;;;;;;6208092;23;20240;-71
2024/01/18 03:15:28;;;;;;;6.80;3.87;;;11.10;99.90;;;;;;6207908;23;20032;-69
2024/01/18 03:17:54;;;;;;;14.10;5.00;;;11.00;99.90;;;;;;6208005;23;20236;-69
2024/01/18 03:20:19;;;;;;;11.00;4.17;;;11.00;99.90;;;;;;6207839;23;20059;-71
2024/01/18 03:22:46;;;;;;;10.47;4.60;;;11.10;99.90;;;;;;6208380;23;20445;-71
2024/01/18 03:25:12;;;;;;;9.07;4.15;;;11.00;99.90;;;;;;6207911;23;20082;-71
2024/01/18 03:27:38;;;;;;;;;;;11.00;99.90;;;;;;6208971;23;20558;-71
2024/01/18 03:30:05;;;;;;;15.38;6.65;;;11.00;99.90;;;;;;6208364;23;19911;-68
2024/01/18 03:32:30;;;;;;;9.20;3.97;;;11.00;99.90;;;;;;6207939;23;20007;-69
2024/01/18 03:34:56;;;;;;;11.90;4.83;;;11.00;99.90;;;;;;6207867;23;20012;-66
2024/01/18 03:37:22;;;;;;;10.93;4.27;;;11.00;99.90;;;;;;6208009;23;20421;-66
2024/01/18 03:39:47;;;;;;;10.87;3.87;;;11.00;99.90;;;;;;6208172;23;20009;-66
2024/01/18 03:42:13;;;;;;;11.17;4.63;;;11.00;99.90;;;;;;6207468;23;20055;-65
2024/01/18 03:44:39;;;;;;;6.22;3.88;;;11.00;99.90;;;;;;6208057;23;20012;-67
2024/01/18 03:47:04;;;;;;;14.90;5.13;;;10.90;99.90;;;;;;6209199;23;20062;-67
2024/01/18 03:49:30;;;;;;;15.93;4.33;;;10.90;99.90;;;;;;6208177;23;20036;-69
2024/01/18 03:51:56;;;;;;;9.23;4.20;;;11.00;99.90;;;;;;6207857;23;20000;-70
2024/01/18 03:54:22;;;;;;;11.77;4.13;;;11.00;99.90;;;;;;6207772;23;20372;-72
2024/01/18 03:56:48;;;;;;;9.40;4.18;;;11.00;99.90;;;;;;6206236;23;20036;-71
2024/01/18 03:59:17;;;;;;;7.13;4.13;;;11.00;99.90;;;;;;6208204;23;20001;-66
2024/01/18 04:01:45;;;;;;;7.07;3.88;;;10.90;99.90;;;;;;6207182;23;20004;-67
2024/01/18 04:04:11;;;;;;;8.68;3.53;;;11.00;99.90;;;;;;6206995;23;20000;-66
2024/01/18 04:06:36;;;;;;;7.07;3.77;;;10.90;99.90;;;;;;6207285;23;20001;-65
2024/01/18 04:09:02;;;;;;;15.67;4.30;;;10.90;99.90;;;;;;6206920;23;20063;-72
2024/01/18 04:11:29;;;;;;;6.95;3.53;;;10.90;99.90;;;;;;6207631;22;20035;-68
2024/01/18 04:13:55;;;;;;;9.27;3.75;;;10.90;99.90;;;;;;6230288;23;20009;-69
2024/01/18 04:16:20;;;;;;;9.13;3.87;;;11.00;99.90;;;;;;6206892;23;20008;-68
2024/01/18 04:18:46;;;;;;;9.67;4.43;;;11.00;99.90;;;;;;6208547;23;20500;-71
2024/01/18 04:21:13;;;;;;;6.23;3.63;;;11.00;99.90;;;;;;6208828;23;20004;-71
2024/01/18 04:23:39;;;;;;;13.45;4.10;;;11.10;99.90;;;;;;6209057;23;20087;-66
2024/01/18 04:26:05;;;;;;;5.90;3.77;;;11.10;99.90;;;;;;6209587;23;20523;-68
2024/01/18 04:28:30;;;;;;;11.17;4.17;;;11.10;99.90;;;;;;6209402;23;20012;-69
2024/01/18 04:30:56;;;;;;;9.57;3.87;;;11.10;99.90;;;;;;6209121;23;20016;-70
2024/01/18 04:33:21;;;;;;;8.13;3.83;;;11.10;99.90;;;;;;6209371;23;20029;-66
2024/01/18 04:35:47;;;;;;;6.37;4.00;;;11.10;99.90;;;;;;6208927;23;20001;-66
2024/01/18 04:38:13;;;;;;;9.70;3.60;;;11.00;99.90;;;;;;6208246;23;20437;-69
2024/01/18 04:40:39;;;;;;;12.82;4.15;;;11.00;99.90;;;;;;6209280;23;20118;-65
2024/01/18 04:43:04;;;;;;;10.18;4.03;;;11.10;99.90;;;;;;6209682;23;20307;-70
2024/01/18 04:45:30;;;;;;;8.83;3.97;;;11.10;99.90;;;;;;6208856;23;20563;-69
2024/01/18 04:47:56;;;;;;;7.30;3.07;;;11.10;99.90;;;;;;6209667;23;20016;-67
2024/01/18 04:50:25;;;;;;;;;;;11.10;99.90;;;;;;6210024;23;20009;-70
2024/01/18 04:52:54;;;;;;;6.28;3.25;;;11.10;99.90;;;;;;6208976;23;19904;-68
2024/01/18 04:55:20;;;;;;;11.25;3.15;;;11.20;99.90;;;;;;6203393;23;20012;-69
2024/01/18 04:57:48;;;;;;;6.28;3.38;;;11.20;99.90;;;;;;6205950;23;20007;-69
2024/01/18 05:00:14;;;;;;;6.30;3.22;;;11.30;99.90;;;;;;6206762;23;20009;-72
2024/01/18 05:02:40;;;;;;;8.95;2.83;;;11.30;99.90;;;;;;6205152;23;20735;-69
2024/01/18 05:05:08;;;;;;;;;;;11.30;99.90;;;;;;6208988;23;20108;-67
2024/01/18 05:07:34;;;;;;;4.53;2.72;;;11.20;99.90;;;;;;6207520;23;19907;-68
2024/01/18 05:10:00;;;;;;;6.60;2.85;;;11.20;99.90;;;;;;6207896;23;20040;-67
2024/01/18 05:12:25;;;;;;;5.95;2.83;;;11.20;99.90;;;;;;6207388;23;20005;-70
2024/01/18 05:14:51;;;;;;;5.77;2.83;;;11.20;99.90;;;;;;6207883;23;20783;-66
2024/01/18 05:17:17;;;;;;;7.67;2.93;;;11.30;99.90;;;;;;6206784;23;20005;-66
2024/01/18 05:19:45;;;;;;;7.73;2.70;;;11.40;99.90;;;;;;6205933;23;20028;-66
2024/01/18 05:22:11;;;;;;;5.13;2.78;;;11.40;99.90;;;;;;6208087;23;20051;-68
2024/01/18 05:24:36;;;;;;;6.20;3.03;;;11.30;99.90;;;;;;6208102;23;20004;-70
2024/01/18 05:27:02;;;;;;;6.77;2.70;;;11.30;99.90;;;;;;6205711;23;20055;-69
2024/01/18 05:29:27;;;;;;;5.33;3.00;;;11.30;99.90;;;;;;6206439;23;20015;-70
2024/01/18 05:31:53;;;;;;;10.53;2.77;;;11.40;99.90;;;;;;6207081;23;20008;-72
2024/01/18 05:34:19;;;;;;;10.50;2.80;;;11.30;99.90;;;;;;6207151;23;20353;-68
2024/01/18 05:36:45;;;;;;;4.47;2.90;;;11.30;99.90;;;;;;6204158;23;20004;-70
2024/01/18 05:39:11;;;;;;;;;;;11.30;99.90;;;;;;6207468;22;20016;-67
2024/01/18 05:41:36;;;;;;;5.45;2.50;;;11.30;99.90;;;;;;6206429;23;19912;-69
2024/01/18 05:44:02;;;;;;;3.13;2.47;;;11.40;99.90;;;;;;6207402;23;20028;-67
2024/01/18 05:46:28;;;;;;;5.25;2.60;;;11.30;99.90;;;;;;6207292;23;20008;-69
2024/01/18 05:48:54;;;;;;;9.17;2.63;;;11.30;99.90;;;;;;6207603;23;20013;-68
2024/01/18 05:51:19;;;;;;;10.05;2.97;;;11.30;99.90;;;;;;6205550;23;20054;-68
2024/01/18 05:53:45;;;;;;;6.25;2.40;;;11.30;99.90;;;;;;6207114;23;20005;-67
2024/01/18 05:56:11;;;;;;;6.40;2.70;;;11.30;99.90;;;;;;6206271;23;20001;-70
2024/01/18 05:58:36;;;;;;;4.13;2.53;;;11.40;99.90;;;;;;6255932;22;20055;-68
2024/01/18 06:01:02;;;;;;;6.43;2.77;;;11.20;99.90;;;;;;6206886;23;20000;-68
2024/01/18 06:03:28;;;;;;;6.07;2.33;;;11.30;99.90;;;;;;6206102;23;20005;-70
2024/01/18 06:05:54;;;;;;;5.67;2.37;;;11.30;99.90;;;;;;6206720;23;20356;-71
2024/01/18 06:08:19;;;;;;;9.43;3.03;;;11.40;99.90;;;;;;6206839;23;20012;-71
2024/01/18 06:10:45;;;;;;;10.60;2.37;;;11.40;99.90;;;;;;6206733;23;20008;-66
2024/01/18 06:13:11;;;;;;;6.03;2.77;;;11.40;99.90;;;;;;6206478;23;20004;-65
2024/01/18 06:15:36;;;;;;;7.70;2.53;;;11.40;99.90;;;;;;6207099;23;19996;-67
2024/01/18 06:18:03;;;;;;;5.30;2.00;;;11.50;99.90;;;;;;6204724;23;20032;-65
2024/01/18 06:20:32;;;;;;;5.80;2.42;;;11.50;99.90;;;;;;6206727;23;20011;-72
2024/01/18 06:22:58;;;;;;;5.82;2.60;;;11.50;99.90;;;;;;6207238;23;20012;-67
2024/01/18 06:25:24;;;;;;;4.22;2.03;;;11.40;99.90;;;;;;6207542;23;20012;-67
2024/01/18 06:27:50;;;;;;;4.90;2.08;;;11.50;99.90;;;;;;6206790;23;20028;-68
2024/01/18 06:30:18;;;;;;;6.68;2.60;;;11.50;99.90;;;;;;6205970;23;20013;-70
2024/01/18 06:32:44;;;;;;;4.95;2.00;;;11.60;99.90;;;;;;6206007;23;20028;-67
2024/01/18 06:35:10;;;;;;;7.10;2.42;;;11.60;99.90;;;;;;6205451;23;20009;-71
2024/01/18 06:37:37;;;;;;;4.65;2.00;;;11.70;99.90;;;;;;6206144;23;20097;-69
2024/01/18 06:40:03;;;;;;;5.78;2.00;;;11.70;99.90;;;;;;6205855;23;20079;-69
2024/01/18 06:42:29;;;;;;;7.78;2.30;;;11.70;99.90;;;;;;6206003;23;20082;-67
2024/01/18 06:44:54;;;;;;;3.40;1.80;;;11.60;99.90;;;;;;6207031;23;20460;-66
2024/01/18 06:47:20;;;;;;;3.97;2.30;;;11.60;99.90;;;;;;6255186;22;20016;-67
2024/01/18 06:49:46;;;;;;;3.80;1.80;;;11.50;99.90;;;;;;6206358;23;20013;-69
2024/01/18 06:52:11;;;;;;;3.53;2.00;;;11.50;99.90;;;;;;6206568;23;20391;-68
2024/01/18 06:54:37;;;;;;;4.83;1.70;;;11.60;99.90;;;;;;6205700;23;20854;-69
2024/01/18 06:57:03;;;;;;;4.23;1.83;;;11.50;99.90;;;;;;6206113;23;20008;-68
2024/01/18 06:59:29;;;;;;;2.53;1.65;;;11.60;99.90;;;;;;6206218;23;20498;-67
2024/01/18 07:01:55;;;;;;;5.13;2.08;;;11.50;99.90;;;;;;6207347;23;20040;-67
2024/01/18 07:04:21;;;;;;;5.10;2.10;;;11.70;99.90;;;;;;6255560;22;20009;-68
2024/01/18 07:06:47;;;;;;;4.95;1.77;;;11.60;99.90;;;;;;6206103;23;20039;-67
2024/01/18 07:09:12;;;;;;;9.40;2.13;;;11.50;99.90;;;;;;6205607;23;20457;-69
2024/01/18 07:11:39;;;;;;;4.97;2.20;;;11.50;99.90;;;;;;6205921;23;20017;-68
2024/01/18 07:14:05;;;;;;;4.78;1.92;;;11.50;99.90;;;;;;6206654;22;20005;-70
2024/01/18 07:16:30;;;;;;;4.40;1.80;;;11.50;99.90;;;;;;6205852;23;20005;-68
2024/01/18 07:18:56;;;;;;;10.90;2.07;;;11.50;99.90;;;;;;6206692;23;20071;-67
2024/01/18 07:21:22;;;;;;;7.87;1.93;;;11.50;99.90;;;;;;6206471;23;20001;-68
2024/01/18 07:23:48;;;;;;;5.30;1.77;;;11.50;99.90;;;;;;6203523;23;20005;-69
2024/01/18 07:26:14;;;;;;;6.63;1.98;;;11.50;99.90;;;;;;6205415;23;20015;-67
2024/01/18 07:28:40;;;;;;;3.88;2.10;;;11.50;99.90;;;;;;6203046;23;20024;-66
2024/01/18 07:31:05;;;;;;;3.87;2.10;;;11.50;99.90;;;;;;6206248;23;20016;-67
2024/01/18 07:33:31;;;;;;;7.07;2.10;;;11.50;99.90;;;;;;6205111;23;20015;-68
2024/01/18 07:35:57;;;;;;;3.90;1.77;;;11.50;99.90;;;;;;6205914;23;20311;-70
2024/01/18 07:38:23;;;;;;;4.53;1.77;;;11.60;99.90;;;;;;6206115;23;20023;-68
2024/01/18 07:40:49;;;;;;;4.60;1.73;;;11.60;99.90;;;;;;6206347;23;20059;-67
2024/01/18 07:43:14;;;;;;;5.17;2.03;;;11.70;99.90;;;;;;6206667;23;20238;-68
2024/01/18 07:45:40;;;;;;;4.33;1.70;;;11.70;99.90;;;;;;6205952;23;20075;-69
2024/01/18 07:48:06;;;;;;;5.43;2.28;;;11.70;99.90;;;;;;6205146;23;20077;-69
2024/01/18 07:50:31;;;;;;;4.10;1.93;;;11.70;99.90;;;;;;6203540;23;20005;-67
2024/01/18 07:52:57;;;;;;;4.43;2.20;;;11.70;99.90;;;;;;6205951;23;20012;-68
2024/01/18 07:55:24;;;;;;;8.50;2.10;;;11.80;99.90;;;;;;6206574;23;20031;-67
2024/01/18 07:57:50;;;;;;;4.63;2.00;;;11.80;99.90;;;;;;6205379;23;20004;-66
2024/01/18 08:00:16;;;;;;;3.28;1.85;;;11.90;99.90;;;;;;6205966;23;20046;-69
2024/01/18 08:02:42;;;;;;;9.38;2.15;;;11.90;99.90;;;;;;6204396;23;20008;-68
2024/01/18 08:05:08;;;;;;;3.80;2.23;;;11.90;99.90;;;;;;6206300;23;20256;-68
2024/01/18 08:07:33;;;;;;;3.33;1.70;;;11.80;99.90;;;;;;6205014;23;20040;-69
2024/01/18 08:09:59;;;;;;;6.47;1.90;;;11.90;99.90;;;;;;6204990;23;20008;-67
2024/01/18 08:12:25;;;;;;;4.87;2.17;;;11.90;99.90;;;;;;6205009;23;20432;-70
2024/01/18 08:14:50;;;;;;;5.23;1.90;;;11.90;99.90;;;;;;6205577;23;20007;-69
2024/01/18 08:17:16;;;;;;;5.00;1.70;;;12.00;99.90;;;;;;6204902;23;20079;-71
2024/01/18 08:19:42;;;;;;;13.77;2.43;;;12.00;99.90;;;;;;6205492;23;20341;-72
2024/01/18 08:22:10;;;;;;;5.63;1.93;;;11.90;99.90;;;;;;6205913;23;20326;-67
2024/01/18 08:24:36;;;;;;;5.68;2.15;;;12.00;99.90;;;;;;6206070;23;20083;-68
2024/01/18 08:27:02;;;;;;;4.55;1.80;;;11.90;99.90;;;;;;6205806;23;20011;-68
2024/01/18 08:29:28;;;;;;;7.50;2.30;;;11.90;99.90;;;;;;6205720;23;20008;-67
2024/01/18 08:31:54;;;;;;;4.50;2.07;;;11.80;99.90;;;;;;6255023;22;20394;-68
2024/01/18 08:34:19;;;;;;;6.15;2.05;;;11.70;99.90;;;;;;6206033;23;20465;-68
2024/01/18 08:36:45;;;;;;;6.03;2.50;;;11.60;99.90;;;;;;6205957;23;20000;-68
2024/01/18 08:39:10;;;;;;;4.53;2.17;;;11.60;99.90;;;;;;6206397;23;20008;-73
2024/01/18 08:41:36;;;;;;;6.87;1.93;;;11.60;99.90;;;;;;6254481;22;20345;-71
2024/01/18 08:44:02;;;;;;;6.70;2.10;;;11.60;99.90;;;;;;6203102;23;20448;-72
2024/01/18 08:46:27;;;;;;;12.10;2.10;;;11.60;99.90;;;;;;6205314;23;20235;-74
2024/01/18 08:48:53;;;;;;;6.27;2.10;;;11.60;99.90;;;;;;6203733;23;20092;-72
2024/01/18 08:51:19;;;;;;;3.40;2.00;;;11.70;99.90;;;;;;6205351;23;20236;-71
2024/01/18 08:53:46;;;;;;;10.53;2.17;;;11.70;99.90;;;;;;6205205;23;20519;-74
2024/01/18 08:56:12;;;;;;;19.27;2.33;;;11.70;99.90;;;;;;6206422;23;20012;-70
2024/01/18 08:58:38;;;;;;;9.45;2.03;;;11.80;99.90;;;;;;6205944;23;20005;-71
2024/01/18 09:01:04;;;;;;;7.15;2.05;;;11.80;99.90;;;;;;6255338;22;20733;-74
2024/01/18 09:03:30;;;;;;;11.13;3.00;;;11.90;99.90;;;;;;6254667;22;20436;-72
2024/01/18 09:05:56;;;;;;;11.52;3.00;;;11.90;99.90;;;;;;6207469;23;20480;-72
2024/01/18 09:08:22;;;;;;;8.30;3.80;;;11.80;99.90;;;;;;6206270;23;20013;-69
2024/01/18 09:10:48;;;;;;;10.77;3.40;;;11.80;99.90;;;;;;6206787;23;20326;-72
2024/01/18 09:13:14;;;;;;;5.82;2.40;;;11.90;99.90;;;;;;6206596;23;20036;-72
2024/01/18 09:15:41;;;;;;;11.83;2.83;;;11.90;99.90;;;;;;6206259;23;20001;-71
2024/01/18 09:18:07;;;;;;;5.50;2.35;;;11.90;99.90;;;;;;6205269;23;20009;-71
2024/01/18 09:20:33;;;;;;;6.65;2.58;;;12.00;99.90;;;;;;6206248;23;20012;-70
2024/01/18 09:22:59;;;;;;;4.57;1.80;;;12.10;99.90;;;;;;6201046;23;20667;-70
2024/01/18 09:25:24;;;;;;;8.87;2.07;;;12.10;99.90;;;;;;6207262;22;20004;-71
2024/01/18 09:27:50;;;;;;;2.47;1.73;;;12.20;99.90;;;;;;6207229;23;20031;-71
2024/01/18 09:30:15;;;;;;;6.80;1.70;;;12.30;99.90;;;;;;6207603;23;20244;-67
2024/01/18 09:32:41;;;;;;;8.30;1.80;;;12.50;99.90;;;;;;6206271;23;20043;-71
2024/01/18 09:35:07;;;;;;;7.73;2.27;;;12.80;99.90;;;;;;6206680;23;20016;-68
2024/01/18 09:37:32;;;;;;;5.30;1.98;;;13.00;99.90;;;;;;6204849;23;20004;-72
2024/01/18 09:39:58;;;;;;;10.87;1.73;;;13.20;99.90;;;;;;6206793;23;20352;-72
2024/01/18 09:42:32;;;;;;;6.97;1.80;;;13.40;99.90;;;;;;6206129;23;20097;-68
2024/01/18 09:45:01;;;;;;;6.82;2.22;;;13.60;99.90;;;;;;6207682;23;20303;-75
2024/01/18 09:47:27;;;;;;;3.45;1.67;;;13.60;99.90;;;;;;6206540;23;20409;-76
2024/01/18 09:49:54;;;;;;;4.17;1.63;;;13.50;99.90;;;;;;6207773;23;20015;-76
2024/01/18 09:52:20;;;;;;;4.03;1.70;;;13.50;99.90;;;;;;6206303;23;20338;-77
2024/01/18 09:54:47;;;;;;;2.58;1.50;;;13.40;99.90;;;;;;6253726;22;20004;-77
2024/01/18 09:57:17;;;;;;;2.60;1.50;;;13.40;99.90;;;;;;6204994;22;20009;-78
2024/01/18 09:59:47;;;;;;;4.43;1.70;;;13.30;99.90;;;;;;6205903;23;20011;-75
2024/01/18 10:02:12;;;;;;;3.22;1.58;;;13.20;99.90;;;;;;6206956;23;20070;-73
2024/01/18 10:04:40;;;;;;;3.58;1.65;;;13.10;99.90;;;;;;6206177;23;19993;-69
2024/01/18 10:07:08;;;;;;;8.63;1.80;;;13.00;99.90;;;;;;6207529;23;20036;-66
2024/01/18 10:09:34;;;;;;;4.88;1.48;;;13.00;99.90;;;;;;6206254;23;20139;-66
2024/01/18 10:11:59;;;;;;;7.78;2.03;;;13.10;99.90;;;;;;6206860;23;20044;-67
2024/01/18 10:14:42;;;;;;;4.37;1.83;;;13.20;99.90;;;;;;6205129;23;20116;-67
2024/01/18 10:17:08;;;;;;;7.53;2.20;;;13.30;99.90;;;;;;6205961;23;20000;-70
2024/01/18 10:19:34;;;;;;;6.45;1.58;;;13.50;99.90;;;;;;6252732;22;20004;-68
2024/01/18 10:22:00;;;;;;;14.33;1.90;;;13.60;99.90;;;;;;6204217;23;20047;-68
2024/01/18 10:24:26;;;;;;;8.57;2.08;;;13.70;99.90;;;;;;6203806;23;20082;-72
2024/01/18 10:27:04;;;;;;;2.85;1.40;;;13.80;99.90;;;;;;6205207;23;20055;-73
2024/01/18 10:29:36;;;;;;;6.95;1.88;;;13.80;99.90;;;;;;6205544;23;20032;-74
2024/01/18 10:32:03;;;;;;;6.70;1.42;;;13.70;99.90;;;;;;6207672;23;20058;-73
2024/01/18 10:34:33;;;;;;;2.88;1.52;;;13.60;99.90;;;;;;6208490;23;20499;-67
2024/01/18 10:36:58;;;;;;;4.47;1.80;;;13.50;99.90;;;;;;6208400;23;20480;-68
2024/01/18 10:39:24;;;;;;;5.83;2.63;;;13.50;99.90;;;;;;6207101;23;20028;-67
2024/01/18 10:41:51;;;;;;;6.43;1.90;;;13.40;99.90;;;;;;6207139;23;20079;-67
2024/01/18 10:44:17;;;;;;;11.87;1.60;;;13.30;99.90;;;;;;6207912;23;20008;-67
2024/01/18 10:46:45;;;;;;;4.72;1.75;;;13.20;99.90;;;;;;6206571;23;20232;-75
2024/01/18 10:49:11;;;;;;;4.00;1.35;;;12.90;99.90;;;;;;6230738;23;20035;-70
2024/01/18 10:51:39;;;;;;;7.05;1.65;;;12.80;99.90;;;;;;6208152;23;20009;-73
2024/01/18 10:54:09;;;;;;;7.43;2.50;;;12.70;99.90;;;;;;6206681;23;20079;-73
2024/01/18 10:56:36;;;;;;;2.97;1.25;;;12.60;99.90;;;;;;6206768;23;20004;-73
2024/01/18 10:59:04;;;;;;;6.43;1.50;;;12.50;99.90;;;;;;6207979;23;20007;-72
2024/01/18 11:01:31;;;;;;;3.92;1.20;;;12.50;99.90;;;;;;6211550;23;20024;-73
2024/01/18 11:03:58;;;;;;;5.25;1.33;;;12.40;99.90;;;;;;6209844;23;20071;-76
2024/01/18 11:06:25;;;;;;;5.75;1.38;;;12.40;99.90;;;;;;6205589;23;20013;-81
2024/01/18 11:08:51;;;;;;;6.70;1.40;;;12.30;99.90;;;;;;6205895;23;20449;-66
2024/01/18 11:11:17;;;;;;;6.60;1.50;;;12.30;99.90;;;;;;6205868;23;20024;-66
2024/01/18 11:13:45;;;;;;;5.20;1.30;;;12.30;99.90;;;;;;6206451;23;20009;-73
2024/01/18 11:16:12;;;;;;;2.80;1.38;;;12.30;99.90;;;;;;6206038;23;20000;-70
2024/01/18 11:18:38;;;;;;;4.40;1.48;;;12.30;99.90;;;;;;6206386;23;20004;-71
2024/01/18 11:21:06;;;;;;;3.07;1.50;;;12.30;99.90;;;;;;6254871;22;20440;-67
2024/01/18 11:23:37;;;;;;;5.00;1.40;;;12.30;99.90;;;;;;6205501;23;20009;-72
2024/01/18 11:26:07;;;;;;;2.70;1.60;;;12.30;99.90;;;;;;6205742;23;20008;-73
2024/01/18 11:28:34;;;;;;;4.30;1.50;;;12.20;99.90;;;;;;6204137;23;20023;-71
2024/01/18 11:31:00;;;;;;;3.80;1.55;;;12.20;99.90;;;;;;6206693;23;20074;-67
2024/01/18 11:33:26;;;;;;;10.52;2.33;;;12.20;99.90;;;;;;6206017;23;20322;-69
2024/01/18 11:35:54;;;;;;;10.88;1.70;;;12.20;99.90;;;;;;6204763;23;20096;-68
2024/01/18 11:38:21;;;;;;;4.88;1.73;;;12.20;99.90;;;;;;6205778;23;20079;-68
2024/01/18 11:40:50;;;;;;;5.15;1.60;;;12.20;99.90;;;;;;6205580;23;20001;-66
2024/01/18 11:43:17;;;;;;;6.50;1.63;;;12.20;99.90;;;;;;6205508;23;20055;-67
2024/01/18 11:45:47;;;;;;;5.90;1.70;;;12.10;99.90;;;;;;6252986;22;20008;-68
2024/01/18 11:48:13;;;;;;;4.70;1.40;;;12.10;99.90;;;;;;6204866;23;20076;-69
2024/01/18 11:50:40;;;;;;;3.80;1.58;;;12.10;99.90;;;;;;6204454;23;20044;-68
2024/01/18 11:53:09;;;;;;;7.13;2.45;;;12.00;99.90;;;;;;6204998;23;20001;-69
2024/01/18 11:55:43;;;;;;;19.92;2.55;;;12.00;99.90;;;;;;6204727;23;20005;-67
2024/01/18 11:58:09;;;;;;;8.85;2.65;;;11.90;99.90;;;;;;6254681;22;20778;-70
2024/01/18 12:00:35;;;;;;;9.93;2.60;;;12.00;99.90;;;;;;6206027;23;20039;-69
2024/01/18 12:03:05;;;;;;;;;;;11.90;99.90;;;;;;6206327;23;20729;-70
2024/01/18 12:05:31;;;;;;;7.75;2.00;;;11.90;99.90;;;;;;6205716;23;19911;-71
2024/01/18 12:07:57;;;;;;;3.37;1.43;;;11.80;99.90;;;;;;6206605;23;20020;-69
2024/01/18 12:10:23;;;;;;;5.97;1.80;;;11.70;99.90;;;;;;6205499;23;20311;-71
2024/01/18 12:12:50;;;;;;;;;;;11.70;99.90;;;;;;6206471;23;20036;-68
2024/01/18 12:15:19;;;;;;;9.10;1.88;;;11.70;99.90;;;;;;6206443;23;19974;-69
2024/01/18 12:17:46;;;;;;;9.25;2.10;;;11.70;99.90;;;;;;6206152;23;20074;-66
2024/01/18 12:20:15;;;;;;;4.32;1.92;;;11.70;99.90;;;;;;6205938;23;20774;-71
2024/01/18 12:22:43;;;;;;;6.47;1.75;;;11.70;99.90;;;;;;6205687;23;20084;-69
2024/01/18 12:25:08;;;;;;;9.88;2.40;;;11.60;99.90;;;;;;6206360;23;20024;-68
2024/01/18 12:27:34;;;;;;;6.55;2.00;;;11.60;99.90;;;;;;6204633;23;20047;-69
2024/01/18 12:30:01;;;;;;;9.13;2.73;;;11.70;99.90;;;;;;6205084;23;20012;-70
2024/01/18 12:32:27;;;;;;;16.25;2.78;;;11.70;99.90;;;;;;6228699;23;20091;-68
2024/01/18 12:34:56;;;;;;;7.05;2.03;;;11.70;99.90;;;;;;6206134;23;20032;-68
2024/01/18 12:37:21;;;;;;;5.38;1.90;;;11.70;99.90;;;;;;6204149;23;20005;-72
2024/01/18 12:39:47;;;;;;;7.20;2.03;;;11.70;99.90;;;;;;6205840;23;20012;-72
2024/01/18 12:42:13;;;;;;;5.13;1.90;;;11.70;99.90;;;;;;6208613;23;20318;-70